Map

Track Data

SID SEASON NUMBER BASIN SUBBASIN NAME ISO_TIME NATURE LAT LON WMO_WIND WMO_PRES WMO_AGENCY TRACK_TYPE DIST2LAND LANDFALL IFLAG USA_AGENCY USA_ATCF_ID USA_LAT USA_LON USA_RECORD USA_STATUS USA_WIND USA_PRES USA_SSHS USA_R34_NE USA_R34_SE USA_R34_SW USA_R34_NW USA_R50_NE USA_R50_SE USA_R50_SW USA_R50_NW USA_R64_NE USA_R64_SE USA_R64_SW USA_R64_NW USA_POCI USA_ROCI USA_RMW USA_EYE TOKYO_LAT TOKYO_LON TOKYO_GRADE TOKYO_WIND TOKYO_PRES TOKYO_R50_DIR TOKYO_R50_LONG TOKYO_R50_SHORT TOKYO_R30_DIR TOKYO_R30_LONG TOKYO_R30_SHORT TOKYO_LAND CMA_LAT CMA_LON CMA_CAT CMA_WIND CMA_PRES HKO_LAT HKO_LON HKO_CAT HKO_WIND HKO_PRES NEWDELHI_LAT NEWDELHI_LON NEWDELHI_GRADE NEWDELHI_WIND NEWDELHI_PRES NEWDELHI_CI NEWDELHI_DP NEWDELHI_POCI REUNION_LAT REUNION_LON REUNION_TYPE REUNION_WIND REUNION_PRES REUNION_TNUM REUNION_CI REUNION_RMW REUNION_R34_NE REUNION_R34_SE REUNION_R34_SW REUNION_R34_NW REUNION_R50_NE REUNION_R50_SE REUNION_R50_SW REUNION_R50_NW REUNION_R64_NE REUNION_R64_SE REUNION_R64_SW REUNION_R64_NW BOM_LAT BOM_LON BOM_TYPE BOM_WIND BOM_PRES BOM_TNUM BOM_CI BOM_RMW BOM_R34_NE BOM_R34_SE BOM_R34_SW BOM_R34_NW BOM_R50_NE BOM_R50_SE BOM_R50_SW BOM_R50_NW BOM_R64_NE BOM_R64_SE BOM_R64_SW BOM_R64_NW BOM_ROCI BOM_POCI BOM_EYE BOM_POS_METHOD BOM_PRES_METHOD NADI_LAT NADI_LON NADI_CAT NADI_WIND NADI_PRES WELLINGTON_LAT WELLINGTON_LON WELLINGTON_WIND WELLINGTON_PRES DS824_LAT DS824_LON DS824_STAGE DS824_WIND DS824_PRES TD9636_LAT TD9636_LON TD9636_STAGE TD9636_WIND TD9636_PRES TD9635_LAT TD9635_LON TD9635_WIND TD9635_PRES TD9635_ROCI NEUMANN_LAT NEUMANN_LON NEUMANN_CLASS NEUMANN_WIND NEUMANN_PRES MLC_LAT MLC_LON MLC_CLASS MLC_WIND MLC_PRES USA_GUST BOM_GUST BOM_GUST_PER REUNION_GUST REUNION_GUST_PER USA_SEAHGT USA_SEARAD_NE USA_SEARAD_SE USA_SEARAD_SW USA_SEARAD_NW STORM_SPEED STORM_DIR
1986007S11055 1986 5 SI MM COSTA 1986-01-07 06:00:00 TS -10.7000 54.6000 main 572 572 O___________O_ jtwc_sh SH061986 -10.7000 54.6000 30 -1 -10.7000 54.6000 TC 30 3 69
1986007S11055 1986 5 SI MM COSTA 1986-01-07 09:00:00 TS -10.6425 54.7525 main 597 597 P___________P_ SH061986 -10.6425 54.7525 32 -1 -10.6425 54.7525 TC 32 3 71
1986007S11055 1986 5 SI MM COSTA 1986-01-07 12:00:00 TS -10.6000 54.9000 main 607 607 O___________O_ jtwc_sh SH061986 -10.6000 54.9000 35 0 -10.6000 54.9000 TC 35 3 79
1986007S11055 1986 5 SI MM COSTA 1986-01-07 15:00:00 TS -10.5850 55.0425 main 617 617 P___________P_ SH061986 -10.5850 55.0425 37 0 -10.5850 55.0425 TC 37 3 90
1986007S11055 1986 5 SI MM COSTA 1986-01-07 18:00:00 TS -10.6000 55.2000 main 636 636 O___________O_ jtwc_sh SH061986 -10.6000 55.2000 40 0 -10.6000 55.2000 TC 40 3 98
1986007S11055 1986 5 SI MM COSTA 1986-01-07 21:00:00 TS -10.6350 55.3925 main 656 656 P___________P_ SH061986 -10.6350 55.3925 42 0 -10.6350 55.3925 TC 42 4 104
1986007S11055 1986 5 SI MM COSTA 1986-01-08 00:00:00 TS -10.7000 55.6000 main 672 672 O___________O_ jtwc_sh SH061986 -10.7000 55.6000 45 0 -10.7000 55.6000 TC 45 4 114
1986007S11055 1986 5 SI MM COSTA 1986-01-08 03:00:00 TS -10.7999 55.7775 main 687 687 P___________P_ SH061986 -10.7999 55.7775 47 0 -10.7999 55.7775 TC 47 4 117
1986007S11055 1986 5 SI MM COSTA 1986-01-08 06:00:00 TS -10.9000 56.0000 main 704 704 O___________O_ jtwc_sh SH061986 -10.9000 56.0000 50 0 -10.9000 56.0000 TC 50 6 106
1986007S11055 1986 5 SI MM COSTA 1986-01-08 09:00:00 TS -10.9500 56.3201 main 735 731 P___________P_ SH061986 -10.9500 56.3201 50 0 -10.9500 56.3201 TC 50 7 98
1986007S11055 1986 5 SI MM COSTA 1986-01-08 12:00:00 TS -11.0000 56.7000 main 773 773 O___________O_ jtwc_sh SH061986 -11.0000 56.7000 50 0 -11.0000 56.7000 TC 50 8 103
1986007S11055 1986 5 SI MM COSTA 1986-01-08 15:00:00 TS -11.1149 57.0774 main 811 811 P___________P_ SH061986 -11.1149 57.0774 50 0 -11.1149 57.0774 TC 50 8 104
1986007S11055 1986 5 SI MM COSTA 1986-01-08 18:00:00 TS -11.2000 57.5000 main 851 851 O___________O_ jtwc_sh SH061986 -11.2000 57.5000 50 0 -11.2000 57.5000 TC 50 9 93
1986007S11055 1986 5 SI MM COSTA 1986-01-08 21:00:00 TS -11.1650 57.9851 main 903 903 P___________P_ SH061986 -11.1650 57.9851 50 0 -11.1650 57.9851 TC 50 10 84
1986007S11055 1986 5 SI MM COSTA 1986-01-09 00:00:00 TS -11.1000 58.5000 main 959 959 O___________O_ jtwc_sh SH061986 -11.1000 58.5000 50 0 -11.1000 58.5000 TC 50 10 79
1986007S11055 1986 5 SI MM COSTA 1986-01-09 03:00:00 TS -10.9725 59.0155 main 1014 1014 P___________P_ SH061986 -10.9725 59.0155 47 0 -10.9725 59.0155 TC 47 10 90
1986007S11055 1986 5 SI MM COSTA 1986-01-09 06:00:00 TS -11.1000 59.5000 main 1025 969 O___________O_ jtwc_sh SH061986 -11.1000 59.5000 45 0 -11.1000 59.5000 TC 45 12 130
1986007S11055 1986 5 SI MM COSTA 1986-01-09 09:00:00 TS -11.7651 59.9668 main 960 883 P___________P_ SH061986 -11.7651 59.9668 45 0 -11.7651 59.9668 TC 45 18 154
1986007S11055 1986 5 SI MM COSTA 1986-01-09 12:00:00 TS -12.7000 60.3000 main 873 786 O___________O_ jtwc_sh SH061986 -12.7000 60.3000 45 0 -12.7000 60.3000 TC 45 20 165
1986007S11055 1986 5 SI MM COSTA 1986-01-09 15:00:00 TS -13.6747 60.4775 main 775 689 P___________P_ SH061986 -13.6747 60.4775 42 0 -13.6747 60.4775 TC 42 18 177
1986007S11055 1986 5 SI MM COSTA 1986-01-09 18:00:00 TS -14.5000 60.4000 main 689 635 O___________O_ jtwc_sh SH061986 -14.5000 60.4000 40 0 -14.5000 60.4000 TC 40 13 199
1986007S11055 1986 5 SI MM COSTA 1986-01-09 21:00:00 TS -14.9125 60.0402 main 630 591 P___________P_ SH061986 -14.9125 60.0402 40 0 -14.9125 60.0402 TC 40 11 235
1986007S11055 1986 5 SI MM COSTA 1986-01-10 00:00:00 TS -15.1000 59.5000 main 591 554 O___________O_ jtwc_sh SH061986 -15.1000 59.5000 40 0 -15.1000 59.5000 TC 40 11 250
1986007S11055 1986 5 SI MM COSTA 1986-01-10 03:00:00 TS -15.2952 58.9275 main 551 531 P___________P_ SH061986 -15.2952 58.9275 37 0 -15.2952 58.9275 TC 37 11 254
1986007S11055 1986 5 SI MM COSTA 1986-01-10 06:00:00 TS -15.4000 58.4000 main 531 527 O___________O_ jtwc_sh SH061986 -15.4000 58.4000 35 0 -15.4000 58.4000 TC 35 8 261
1986007S11055 1986 5 SI MM COSTA 1986-01-10 09:00:00 TS -15.4223 58.0624 main 527 526 P___________P_ SH061986 -15.4223 58.0624 35 0 -15.4223 58.0624 TC 35 6 270
1986007S11055 1986 5 SI MM COSTA 1986-01-10 12:00:00 TS -15.4000 57.8000 main 526 525 O___________O_ jtwc_sh SH061986 -15.4000 57.8000 35 0 -15.4000 57.8000 TC 35 5 272
1986007S11055 1986 5 SI MM COSTA 1986-01-10 15:00:00 TS -15.4075 57.5000 main 525 516 P___________P_ SH061986 -15.4075 57.5000 32 -1 -15.4075 57.5000 TC 32 8 265
1986007S11055 1986 5 SI MM COSTA 1986-01-10 18:00:00 TS -15.4667 56.9556 36 reunion main 517 517 O____O______O_ jtwc_sh SH061986 -15.4000 57.2000 30 -1 -16.0000 55.0000 2 36 9.90000 -15.4000 57.2000 TC 30 10 262
1986007S11055 1986 5 SI MM COSTA 1986-01-10 21:00:00 TS -15.5450 56.4849 main 525 525 P____P______P_ SH061986 -15.3649 56.9075 30 -1 -15.8625 55.0500 2 36 -15.3649 56.9075 TC 30 8 267
1986007S11055 1986 5 SI MM COSTA 1986-01-11 00:00:00 TS -15.5045 56.1067 36 reunion main 535 535 O____O______O_ jtwc_sh SH061986 -15.3000 56.6000 30 -1 -15.7000 55.1000 2 36 9.90000 -15.3000 56.6000 TC 30 7 282
1986007S11055 1986 5 SI MM COSTA 1986-01-11 03:00:00 TS -15.3987 55.7985 main 555 547 P____P______P_ SH061986 -15.2375 56.2501 32 -1 -15.4999 55.1624 2 28 -15.2375 56.2501 TC 32 5 301
1986007S11055 1986 5 SI MM COSTA 1986-01-11 06:00:00 TS -15.2250 55.6250 20 1003 reunion main 547 537 O____O____O_O_ jtwc_sh SH061986 -15.1000 55.9000 35 0 -15.3000 55.3000 2 20 1003 1.50000 1.50000 -15.4000 55.4000 1 25 -15.1000 55.9000 TC 35 5 329
1986007S11055 1986 5 SI MM COSTA 1986-01-11 09:00:00 TS -15.0028 55.5489 main 537 537 P____P____P_P_ SH061986 -14.8375 55.5398 35 0 -15.1276 55.5776 2 20 1001 -15.2442 55.7037 1 26 -14.8375 55.5398 TC 35 5 355
1986007S11055 1986 5 SI MM COSTA 1986-01-11 12:00:00 TS -14.7669 55.5821 20 1000 reunion main 549 549 O____O____P_O_ jtwc_sh SH061986 -14.5000 55.3000 35 0 -15.0000 55.9000 2 20 1000 2.00000 2.00000 -15.1005 56.0057 1 27 -14.5000 55.3000 TC 35 5 18
1986007S11055 1986 5 SI MM COSTA 1986-01-11 15:00:00 TS -14.5412 55.7035 main 564 564 P____P____P_P_ SH061986 -14.1348 55.2300 35 0 -14.9274 56.1499 2 24 998 -14.9816 56.3048 1 28 -14.1348 55.2300 TC 35 6 40
1986007S11055 1986 5 SI MM COSTA 1986-01-11 18:00:00 TS -14.3500 55.9500 28 997 reunion main 600 589 O____O____O_O_ jtwc_sh SH061986 -13.8000 55.4000 35 0 -14.9000 56.4000 2 28 997 2.50000 2.50000 -14.9000 56.6000 1 30 -13.8000 55.4000 TC 35 7 61
1986007S11055 1986 5 SI MM COSTA 1986-01-11 21:00:00 TS -14.2106 56.3090 main 634 634 P____P____P_P_ SH061986 -13.5402 55.8328 35 0 -14.8999 56.6774 2 28 997 -14.8621 56.8930 1 31 -13.5402 55.8328 TC 35 8 75
1986007S11055 1986 5 SI MM COSTA 1986-01-12 00:00:00 TS -14.1374 56.7492 28 997 reunion main 676 672 O____O____P_O_ jtwc_sh SH061986 -13.4000 56.4000 35 0 -14.9000 57.0000 2 28 997 2.50000 2.50000 -14.8494 57.1969 1 32 -13.4000 56.4000 TC 35 8 83
1986007S11055 1986 5 SI MM COSTA 1986-01-12 03:00:00 TS -14.1148 57.1725 main 672 671 P____P____P_P_ SH061986 -13.3824 56.8925 37 0 -14.8575 57.3775 2 28 997 -14.8370 57.5273 1 33 -13.3824 56.8925 TC 37 9 91
1986007S11055 1986 5 SI MM COSTA 1986-01-12 06:00:00 TS -14.1500 57.6250 28 997 reunion main 671 660 O____O____O_O_ jtwc_sh SH061986 -13.5000 57.4000 40 0 -14.8000 57.8000 2 28 997 2.50000 2.50000 -14.8000 57.9000 2 35 -13.5000 57.4000 TC 40 9 96
1986007S11055 1986 5 SI MM COSTA 1986-01-12 09:00:00 TS -14.2137 58.1210 main 661 653 P____P____P_P_ SH061986 -13.7200 57.9499 42 0 -14.7799 58.2348 2 32 994 -14.6350 58.3493 2 38 -13.7200 57.9499 TC 42 10 98
1986007S11055 1986 5 SI MM COSTA 1986-01-12 12:00:00 TS -14.2882 58.6342 36 991 reunion main 656 656 O____O____P_O_ jtwc_sh SH061986 -14.0000 58.5000 45 0 -14.7000 58.7000 3 36 991 3.00000 3.00000 -14.4529 58.8368 2 42 -14.0000 58.5000 TC 45 10 96
1986007S11055 1986 5 SI MM COSTA 1986-01-12 15:00:00 TS -14.3098 59.1385 main 665 665 P____P____P_P_ SH061986 -14.2498 59.0076 47 0 -14.4200 59.2080 3 36 991 -14.3194 59.3307 2 46 -14.2498 59.0076 TC 47 10 95
1986007S11055 1986 5 SI MM COSTA 1986-01-12 18:00:00 TS -14.3750 59.6250 36 991 reunion main 668 668 O____O____O_O_ jtwc_sh SH061986 -14.5000 59.5000 50 0 -14.2000 59.7000 3 36 991 3.00000 3.00000 -14.3000 59.8000 2 50 -14.5000 59.5000 TC 50 9 104
1986007S11055 1986 5 SI MM COSTA 1986-01-12 21:00:00 TS -14.5445 60.0784 main 676 658 P____P____P_P_ SH061986 -14.7424 60.0076 50 0 -14.2524 60.1149 3 40 987 -14.4406 60.1835 2 52 -14.7424 60.0076 TC 50 10 116
1986007S11055 1986 5 SI MM COSTA 1986-01-13 00:00:00 TS -14.8010 60.5108 44 984 reunion main 663 654 O____O____P_O_ jtwc_sh SH061986 -15.0000 60.5000 50 0 -14.5000 60.5000 3 44 984 3.50000 3.50000 -14.7041 60.5430 2 55 -15.0000 60.5000 TC 50 10 124
1986007S11055 1986 5 SI MM COSTA 1986-01-13 03:00:00 TS -15.1039 60.9397 main 654 640 P____P____P_P_ SH061986 -15.2699 60.9652 52 0 -14.8101 60.9226 3 44 984 -15.0656 60.9060 2 57 -15.2699 60.9652 TC 52 11 131
1986007S11055 1986 5 SI MM COSTA 1986-01-13 06:00:00 TS -15.5000 61.3500 44 984 reunion main 646 623 O____O____O_O_ jtwc_sh SH061986 -15.6000 61.4000 55 0 -15.3000 61.3000 3 44 984 3.50000 3.50000 -15.5000 61.3000 2 60 -15.6000 61.4000 TC 55 12 140
1986007S11055 1986 5 SI MM COSTA 1986-01-13 09:00:00 TS -16.0204 61.7375 main 623 606 P____P____P_P_ SH061986 -16.0274 61.8150 57 0 -16.0496 61.5204 3 48 980 -15.9771 61.7994 2 61 -16.0274 61.8150 TC 57 13 145
1986007S11055 1986 5 SI MM COSTA 1986-01-13 12:00:00 TS -16.5783 62.1320 52 976 reunion main 607 607 O____O____P_O_ jtwc_sh SH061986 -16.5000 62.2000 60 0 -16.8000 61.8000 3 52 976 4.00000 4.00000 -16.5134 62.3282 2 62 -16.5000 62.2000 TC 60 13 142
1986007S11055 1986 5 SI MM COSTA 1986-01-13 15:00:00 TS -17.0644 62.5765 main 615 615 P____P____P_P_ SH061986 -16.9574 62.5577 62 0 -17.2752 62.3475 3 48 980 -17.0678 62.8432 2 63 -16.9574 62.5577 TC 62 13 137
1986007S11055 1986 5 SI MM COSTA 1986-01-13 18:00:00 TS -17.5000 63.0250 44 984 reunion main 629 629 O____O____O_O_ jtwc_sh SH061986 -17.4000 62.9000 65 1 -17.6000 63.0000 3 44 984 3.50000 3.50000 -17.6000 63.3000 4 65 -17.4000 62.9000 TC 65 12 134
1986007S11055 1986 5 SI MM COSTA 1986-01-13 21:00:00 TS -17.8773 63.4533 main 656 651 P____P____P_P_ SH061986 -17.8074 63.2502 67 1 -17.8128 63.6679 3 44 984 -18.0814 63.6448 4 66 -17.8074 63.2502 TC 67 11 135
1986007S11055 1986 5 SI MM COSTA 1986-01-14 00:00:00 TS -18.2579 63.8315 44 984 reunion main 668 668 O____O____P_O_ jtwc_sh SH061986 -18.2000 63.6000 70 1 -18.1000 64.2000 3 44 984 3.50000 3.50000 -18.5316 63.9262 4 68 -18.2000 63.6000 TC 70 11 143
1986007S11055 1986 5 SI MM COSTA 1986-01-14 03:00:00 TS -18.7264 64.1274 main 684 681 P____P____P_P_ SH061986 -18.6075 63.9576 70 1 -18.7497 64.4252 3 44 984 -18.9410 64.1695 4 70 -18.6075 63.9576 TC 70 11 151
1986007S11055 1986 5 SI MM COSTA 1986-01-14 06:00:00 TS -19.1750 64.3750 44 984 reunion main 701 699 O____O____O_O_ jtwc_sh SH061986 -19.0000 64.3000 70 1 -19.4000 64.5000 3 44 984 3.50000 3.50000 -19.3000 64.4000 4 72 -19.0000 64.3000 TC 70 9 150
1986007S11055 1986 5 SI MM COSTA 1986-01-14 09:00:00 TS -19.5110 64.6136 main 716 716 P____P____P_P_ SH061986 -19.3574 64.6077 70 1 -19.7249 64.5853 3 44 984 -19.6041 64.6538 4 70 -19.3574 64.6077 TC 70 8 144
1986007S11055 1986 5 SI MM COSTA 1986-01-14 12:00:00 TS -19.7899 64.8502 44 984 reunion main 743 742 O____O____P_O_ jtwc_sh SH061986 -19.7000 64.9000 70 1 -19.9000 64.7000 3 44 984 3.50000 3.50000 -19.8597 64.9008 4 68 -19.7000 64.9000 TC 70 7 140
1986007S11055 1986 5 SI MM COSTA 1986-01-14 15:00:00 TS -20.0701 65.1150 main 761 761 P____P____P_P_ SH061986 -20.0650 65.2075 67 1 -20.0649 64.8976 3 44 984 -20.0854 65.1475 4 66 -20.0650 65.2075 TC 67 7 136
1986007S11055 1986 5 SI MM COSTA 1986-01-14 18:00:00 TS -20.3250 65.4000 44 984 reunion main 792 792 O____O____O_O_ jtwc_sh SH061986 -20.4000 65.5000 65 1 -20.2000 65.2000 3 44 984 3.50000 3.50000 -20.3000 65.4000 4 65 -20.4000 65.5000 TC 65 7 130
1986007S11055 1986 5 SI MM COSTA 1986-01-14 21:00:00 TS -20.5482 65.7141 main 823 823 P____P____P_P_ SH061986 -20.6724 65.7577 65 1 -20.3278 65.6650 3 48 980 -20.5200 65.6762 4 63 -20.6724 65.7577 TC 65 7 127
1986007S11055 1986 5 SI MM COSTA 1986-01-15 00:00:00 TS -20.7588 66.0145 52 976 reunion main 855 855 O____O____P_O_ jtwc_sh SH061986 -20.9000 66.0000 65 1 -20.5000 66.1000 3 52 976 4.00000 4.00000 -20.7350 65.9579 4 62 -20.9000 66.0000 TC 65 7 131
1986007S11055 1986 5 SI MM COSTA 1986-01-15 03:00:00 TS -20.9893 66.2522 main 887 887 P____P____P_P_ SH061986 -21.1300 66.2575 62 0 -20.7396 66.2581 3 52 976 -20.9575 66.2356 4 61 -21.1300 66.2575 TC 62 6 137
1986007S11055 1986 5 SI MM COSTA 1986-01-15 06:00:00 TS -21.2250 66.4750 52 976 reunion main 909 909 O____O____O_O_ jtwc_sh SH061986 -21.3000 66.5000 60 0 -21.1000 66.4000 3 52 976 4.00000 4.00000 -21.2000 66.5000 2 60 -21.3000 66.5000 TC 60 7 138
1986007S11055 1986 5 SI MM COSTA 1986-01-15 09:00:00 TS -21.4828 66.7302 main 933 933 P____P____P_P_ SH061986 -21.4025 66.7225 57 0 -21.6193 66.6880 3 52 980 -21.5069 66.7875 2 57 -21.4025 66.7225 TC 57 7 136
1986007S11055 1986 5 SI MM COSTA 1986-01-15 12:00:00 TS -21.7515 67.0297 52 984 reunion main 969 969 O____O____P_O_ jtwc_sh SH061986 -21.4000 66.9000 55 0 -22.2000 67.2000 3 52 984 4.00000 4.00000 -21.8301 67.0541 2 55 -21.4000 66.9000 TC 55 9 129
1986007S11055 1986 5 SI MM COSTA 1986-01-15 15:00:00 TS -22.0634 67.5088 main 1025 1025 P____P____P_P_ SH061986 -21.2825 67.0175 50 0 -22.7696 68.2402 3 44 987 -22.1382 67.2687 2 52 -21.2825 67.0175 TC 50 11 129
1986007S11055 1986 5 SI MM COSTA 1986-01-15 18:00:00 TS -22.4600 67.9800 36 991 reunion main 1083 1083 O____O____O_O_ jtwc_sh SH061986 -21.1000 67.1000 45 0 -23.2000 69.0000 3 36 991 3.00000 3.00000 -22.4000 67.4000 2 50 -21.1000 67.1000 TC 45 10 151
1986007S11055 1986 5 SI MM COSTA 1986-01-15 21:00:00 TS -22.9758 68.0450 main 1095 1066 _____P____P___ SH061986 -1 -23.4051 68.6541 3 36 991 -22.5466 67.4359 2 47 TC 6 209
1986007S11055 1986 5 SI MM COSTA 1986-01-16 00:00:00 TS -23.0248 67.6425 36 991 reunion main 1056 1036 _____O____P___ -1 -23.4000 67.9000 3 36 991 3.00000 3.00000 -22.6496 67.3850 2 45 6 266
1986007S11055 1986 5 SI MM COSTA 1986-01-16 03:00:00 TS -23.0210 67.3812 main 1036 1006 _____P____P___ -1 -23.2890 67.4956 3 36 991 -22.7529 67.2667 2 42 6 278
1986007S11055 1986 5 SI MM COSTA 1986-01-16 06:00:00 TS -22.9500 67.0500 36 991 reunion main 1003 941 _____O____O___ -1 -23.0000 67.0000 3 36 991 3.00000 3.00000 -22.9000 67.1000 2 40 9 288
1986007S11055 1986 5 SI MM COSTA 1986-01-16 09:00:00 TS -22.7479 66.4631 main 938 889 _____P____P___ -1 -22.3742 66.0796 3 36 991 -23.1217 66.8466 2 11 284
1986007S11055 1986 5 SI MM COSTA 1986-01-16 12:00:00 TS -22.6978 65.9313 36 991 reunion main 879 866 _____O____P___ -1 -22.0000 65.3000 3 36 991 3.00000 3.00000 -23.3956 66.5626 2 8 243
1986007S11055 1986 5 SI MM COSTA 1986-01-16 15:00:00 TS -23.1101 65.6958 main 873 873 _____P____P___ -1 -22.4987 65.0694 3 36 991 -23.7215 66.3221 2 10 190
1986007S11055 1986 5 SI MM COSTA 1986-01-16 18:00:00 TS -23.7000 65.7500 36 991 reunion main 907 907 _____O____O___ -1 -23.3000 65.3000 3 36 991 3.00000 3.00000 -24.1000 66.2000 2 12 156
1986007S11055 1986 5 SI MM COSTA 1986-01-16 21:00:00 TS -24.2046 66.2214 main 966 966 _____P____P___ -1 -23.7715 65.9764 3 32 994 -24.6378 66.4664 2 14 139
1986007S11055 1986 5 SI MM COSTA 1986-01-17 00:00:00 ET -24.7530 66.7665 28 997 reunion main 1049 1049 _____O____P___ -1 -24.3000 66.7000 5 28 997 2.50000 2.50000 -25.2059 66.8330 2 15 148
1986007S11055 1986 5 SI MM COSTA 1986-01-17 03:00:00 ET -25.4597 67.0919 main 1111 1111 _____P____P___ -1 -25.2238 67.0748 5 32 -25.6957 67.1090 2 13 168
1986007S11055 1986 5 SI MM COSTA 1986-01-17 06:00:00 TS -26.0000 67.0500 36 reunion main 1139 1094 _____O____O___ -1 -26.0000 67.0000 6 36 9.90000 -26.0000 67.1000 2 9 221
1986007S11055 1986 5 SI MM COSTA 1986-01-17 09:00:00 TS -26.0968 66.4646 main 1094 1007 _____P____P___ -1 -26.2031 66.3588 6 36 -25.9905 66.5704 2 13 275
1986007S11055 1986 5 SI MM COSTA 1986-01-17 12:00:00 TS -25.8928 65.5712 36 reunion main 1007 908 _____O____P___ -1 -26.0000 65.4000 6 36 9.90000 -25.7857 65.7425 2 18 289
1986007S11055 1986 5 SI MM COSTA 1986-01-17 15:00:00 TS -25.5186 64.6290 main 900 801 _____P____P___ -1 -25.5747 64.5139 6 36 -25.4625 64.7440 2 19 296
1986007S11055 1986 5 SI MM COSTA 1986-01-17 18:00:00 TS -25.0500 63.6500 36 reunion main 794 687 _____O____O___ -1 -25.0000 63.6000 6 36 9.90000 -25.1000 63.7000 2 21 298
1986007S11055 1986 5 SI MM COSTA 1986-01-17 21:00:00 TS -24.5420 62.6362 main 673 575 _____P____P___ -1 -24.4245 62.6992 6 36 -24.6594 62.5732 2 21 297
1986007S11055 1986 5 SI MM COSTA 1986-01-18 00:00:00 TS -24.1104 61.6317 36 reunion main 568 489 _____O____P___ -1 -24.0000 61.8000 6 36 9.90000 -24.2207 61.4633 2 20 291
1986007S11055 1986 5 SI MM COSTA 1986-01-18 03:00:00 TS -23.8485 60.6200 main 474 444 _____P____P___ -1 -23.7761 60.6922 6 36 -23.9208 60.5479 2 15 276
1986007S11055 1986 5 SI MM COSTA 1986-01-18 06:00:00 TS -23.9500 60.0000 36 reunion main 447 447 _____O____O___ -1 -24.0000 60.0000 6 36 9.90000 -23.9000 60.0000 2 9 208
1986007S11055 1986 5 SI MM COSTA 1986-01-18 09:00:00 TS -24.6566 60.1484 main 530 530 _____P____P___ -1 -24.9250 60.2940 6 36 -24.3882 60.0029 2 18 159
1986007S11055 1986 5 SI MM COSTA 1986-01-18 12:00:00 TS -25.5762 60.6900 36 reunion main 647 647 _____O____P___ -1 -26.0000 61.0000 6 36 9.90000 -25.1524 60.3800 2 19 150
1986007S11055 1986 5 SI MM COSTA 1986-01-18 15:00:00 TS -26.3062 61.2223 main 739 739 _____P____P___ -1 -26.5971 61.4512 6 36 -26.0153 60.9934 2 17 143
1986007S11055 1986 5 SI MM COSTA 1986-01-18 18:00:00 TS -26.9000 61.8000 36 reunion main 827 827 _____O____O___ -1 -27.0000 61.9000 6 36 9.90000 -26.8000 61.7000 1 15 136
1986007S11055 1986 5 SI MM COSTA 1986-01-18 21:00:00 TS -27.3869 62.3812 main 906 906 _____P____P___ -1 -27.4023 62.3851 6 36 -27.3715 62.3772 1 13 129
1986007S11055 1986 5 SI MM COSTA 1986-01-19 00:00:00 TS -27.7268 62.9550 36 reunion main 967 967 _____O____P___ -1 -27.7000 62.9000 6 36 9.90000 -27.7536 63.0100 1 12 119
1986007S11055 1986 5 SI MM COSTA 1986-01-19 03:00:00 TS -27.9460 63.5274 main 1014 1014 _____P____P___ -1 -27.8830 63.4424 6 36 -28.0090 63.6124 1 11 110
1986007S11055 1986 5 SI MM COSTA 1986-01-19 06:00:00 TS -28.1000 64.1000 36 reunion main 1067 _____O____O___ -1 -28.0000 64.0000 6 36 9.90000 -28.2000 64.2000 1 11 107

About IBTrACS Database

This database is a web-friendly format of International Best Track Archive for Climate Stewardship (IBTrACS), a global best track data archive curated by NOAA dating back to 1842.

Updated: 2021-12-08